Time;durP1;ratioP1;P1;durP2;ratioP2;P2;SDS_P1;SDS_P2;PMS_P1;PMS_P2;Temp;Humidity;BMP_temperature;BMP_pressure;BME280_temperature;BME280_humidity;BME280_pressure;Samples;Min_cycle;Max_cycle;Signal;HPM_P1;HPM_P2
2022/08/06 00:01:50;;;;;;;4.63;3.45;;;;;;;21.78;67.78;94338.06;5053282;28;20206;-65
2022/08/06 00:04:17;;;;;;;3.88;3.45;;;;;;;21.66;67.71;94339.69;5053362;28;20272;-62
2022/08/06 00:06:42;;;;;;;3.90;3.22;;;;;;;21.65;67.88;94345.88;5053079;28;20209;-64
2022/08/06 00:09:08;;;;;;;3.50;3.20;;;;;;;21.62;68.79;94334.16;5053268;28;20193;-64
2022/08/06 00:11:34;;;;;;;3.20;3.00;;;;;;;21.62;68.23;94341.91;5034955;28;20217;-64
2022/08/06 00:13:59;;;;;;;3.03;2.83;;;;;;;21.65;68.90;94341.47;5035322;28;20194;-60
2022/08/06 00:16:25;;;;;;;4.03;3.72;;;;;;;21.57;68.57;94344.31;5051632;28;20276;-63
2022/08/06 00:18:50;;;;;;;7.57;3.53;;;;;;;21.63;68.87;94347.88;5034813;28;20185;-60
2022/08/06 00:21:16;;;;;;;3.90;3.28;;;;;;;21.59;68.95;94339.72;5053157;28;20209;-65
2022/08/06 00:23:41;;;;;;;4.03;3.55;;;;;;;21.63;69.63;94330.53;5053153;28;20188;-63
2022/08/06 00:26:07;;;;;;;3.85;3.35;;;;;;;21.55;69.36;94332.59;5052816;28;20275;-63
2022/08/06 00:28:32;;;;;;;3.85;3.38;;;;;;;21.63;68.86;94345.28;5052946;28;20220;-63
2022/08/06 00:31:03;;;;;;;4.03;3.67;;;;;;;21.63;69.61;94338.31;5052741;28;20247;-65
2022/08/06 00:33:28;;;;;;;5.65;3.55;;;;;;;21.68;68.09;94348.84;5052717;28;20276;-65
2022/08/06 00:35:54;;;;;;;4.97;3.72;;;;;;;21.67;69.41;94342.06;5052565;28;20229;-65
2022/08/06 00:38:19;;;;;;;5.20;3.67;;;;;;;21.76;67.87;94360.75;5052712;28;20266;-63
2022/08/06 00:40:45;;;;;;;3.65;3.35;;;;;;;21.69;68.45;94347.06;5034830;28;20678;-65
2022/08/06 00:43:12;;;;;;;4.55;3.65;;;;;;;21.62;69.91;94338.50;5052623;28;20185;-63
2022/08/06 00:45:38;;;;;;;4.38;3.33;;;;;;;21.82;69.17;94341.84;5052492;28;20209;-65
2022/08/06 00:48:03;;;;;;;4.30;3.78;;;;;;;21.87;68.59;94343.84;5052640;28;20188;-61
2022/08/06 00:50:30;;;;;;;5.22;4.72;;;;;;;21.79;69.49;94331.09;5052275;28;20213;-60
2022/08/06 00:52:56;;;;;;;4.70;3.80;;;;;;;21.83;69.02;94345.25;5052366;28;20189;-61
2022/08/06 00:55:21;;;;;;;6.13;4.80;;;;;;;21.71;69.95;94340.66;5052685;28;20234;-65
2022/08/06 00:57:47;;;;;;;3.63;3.30;;;;;;;21.65;69.63;94341.47;5052496;28;20186;-64
2022/08/06 01:00:13;;;;;;;3.90;3.60;;;;;;;21.86;69.76;94344.81;5052440;28;20580;-61
2022/08/06 01:02:38;;;;;;;3.47;3.17;;;;;;;21.80;69.81;94340.44;5052411;28;20197;-64
2022/08/06 01:05:04;;;;;;;4.07;3.67;;;;;;;21.85;69.94;94341.47;5052264;28;20194;-64
2022/08/06 01:07:30;;;;;;;5.00;3.67;;;;;;;21.78;70.10;94338.06;5052595;28;20177;-64
2022/08/06 01:09:55;;;;;;;5.55;3.75;;;;;;;21.77;70.38;94334.66;5052637;28;20273;-63
2022/08/06 01:12:20;;;;;;;7.15;3.60;;;;;;;21.79;70.65;94336.28;5052041;28;20300;-64
2022/08/06 01:14:46;;;;;;;4.97;3.92;;;;;;;21.77;70.87;94337.25;5052591;28;20567;-63
2022/08/06 01:17:19;;;;;;;4.10;3.70;;;;;;;21.88;70.18;94335.84;5052150;28;20561;-61
2022/08/06 01:19:51;;;;;;;3.20;3.00;;;;;;;21.88;68.15;94350.59;5034185;28;20219;-61
2022/08/06 01:22:35;;;;;;;6.85;3.70;;;;;;;21.71;68.97;94348.44;5034157;28;20291;-63
2022/08/06 01:25:42;;;;;;;6.35;3.92;;;;;;;21.52;70.26;94335.56;5052269;28;20583;-65
2022/08/06 01:28:14;;;;;;;5.55;3.30;;;;;;;21.49;70.33;94334.19;5046800;28;20209;-65
2022/08/06 01:30:47;;;;;;;4.10;3.72;;;;;;;21.32;71.19;94330.47;5051966;28;20221;-60
2022/08/06 01:33:42;;;;;;;5.13;3.90;;;;;;;21.19;72.03;94322.72;5051822;28;20663;-64
2022/08/06 01:36:11;;;;;;;6.22;3.47;;;;;;;21.09;72.74;94314.59;5011230;28;20307;-65
2022/08/06 01:38:50;;;;;;;3.88;3.40;;;;;;;21.15;72.82;94318.19;5052098;28;20213;-64
2022/08/06 01:41:39;;;;;;;4.07;3.67;;;;;;;21.11;72.90;94317.75;5051635;28;20248;-62
2022/08/06 01:44:23;;;;;;;4.15;3.47;;;;;;;21.18;73.04;94322.94;5033798;28;20217;-64
2022/08/06 01:46:52;;;;;;;5.05;4.13;;;;;;;20.98;73.99;94304.84;5051702;28;20677;-64
2022/08/06 01:49:22;;;;;;;6.40;3.75;;;;;;;20.87;74.64;94305.44;5051683;28;20221;-64
2022/08/06 01:51:51;;;;;;;4.10;3.70;;;;;;;20.78;75.10;94311.84;5033354;28;20290;-62
2022/08/06 01:54:19;;;;;;;6.72;3.90;;;;;;;20.74;75.30;94308.84;5051857;28;20190;-64
2022/08/06 01:56:47;;;;;;;5.00;3.97;;;;;;;20.69;75.68;94311.22;5033529;28;20217;-61
2022/08/06 01:59:16;;;;;;;5.32;3.65;;;;;;;20.68;75.72;94314.03;5051666;28;20190;-61
2022/08/06 02:01:46;;;;;;;3.85;3.55;;;;;;;20.77;75.38;94307.66;5051385;28;20216;-65
2022/08/06 02:04:14;;;;;;;4.63;4.05;;;;;;;20.81;75.73;94311.41;5051626;28;20196;-65
2022/08/06 02:06:43;;;;;;;4.00;3.70;;;;;;;21.02;75.44;94318.19;5051172;28;20214;-65
2022/08/06 02:09:13;;;;;;;3.80;3.42;;;;;;;21.01;75.41;94316.59;5033209;28;20648;-65
2022/08/06 02:11:41;;;;;;;4.07;3.47;;;;;;;21.09;75.08;94316.41;5051219;28;20261;-65
2022/08/06 02:14:08;;;;;;;4.97;4.13;;;;;;;21.16;75.11;94307.63;5016829;28;20283;-65
2022/08/06 02:16:39;;;;;;;4.22;3.88;;;;;;;20.97;75.87;94292.91;5033221;28;20699;-64
2022/08/06 02:19:07;;;;;;;5.05;4.53;;;;;;;21.03;75.02;94305.06;5051573;28;20726;-63
2022/08/06 02:21:34;;;;;;;5.05;3.90;;;;;;;20.97;75.95;94297.31;5051046;28;20267;-62
2022/08/06 02:24:04;;;;;;;4.05;3.75;;;;;;;20.95;76.71;94289.72;5051374;28;20181;-60
2022/08/06 02:26:30;;;;;;;4.55;3.80;;;;;;;20.96;77.71;94286.16;5051066;28;20708;-64
2022/08/06 02:28:59;;;;;;;4.22;3.75;;;;;;;21.02;77.74;94287.16;5051105;28;20189;-64
2022/08/06 02:31:25;;;;;;;5.43;3.92;;;;;;;21.15;76.33;94300.84;5050673;28;20220;-64
2022/08/06 02:33:51;;;;;;;4.97;4.07;;;;;;;21.14;76.31;94296.69;5050820;28;20182;-63
2022/08/06 02:36:46;;;;;;;4.18;3.70;;;;;;;21.08;77.37;94288.94;5050937;28;20312;-65
2022/08/06 02:39:22;;;;;;;4.05;3.65;;;;;;;21.04;77.85;94296.31;5032663;28;20719;-64
2022/08/06 02:41:58;;;;;;;6.60;4.03;;;;;;;21.00;78.28;94287.34;5050764;28;20343;-60
2022/08/06 02:44:42;;;;;;;4.78;4.38;;;;;;;21.05;77.83;94300.47;5033153;28;20843;-60
2022/08/06 02:47:13;;;;;;;6.35;4.13;;;;;;;21.12;77.37;94301.28;5050591;28;20750;-60
2022/08/06 02:49:48;;;;;;;4.70;4.22;;;;;;;21.23;77.35;94302.44;5051184;28;20185;-60
2022/08/06 02:52:19;;;;;;;4.85;4.25;;;;;;;21.05;80.07;94290.13;5050679;28;20240;-64
2022/08/06 02:54:56;;;;;;;5.97;4.78;;;;;;;21.02;80.34;94300.09;5050842;28;20186;-61
2022/08/06 02:57:36;;;;;;;5.05;4.35;;;;;;;21.14;79.77;94304.44;5032694;28;20714;-65
2022/08/06 03:00:07;;;;;;;5.05;4.28;;;;;;;20.91;80.99;94304.06;5050902;28;20331;-65
2022/08/06 03:02:38;;;;;;;8.10;4.70;;;;;;;20.87;82.05;94326.13;5050545;28;20197;-65
2022/08/06 03:05:06;;;;;;;5.38;4.60;;;;;;;21.05;80.58;94341.06;5051024;28;20185;-61
2022/08/06 03:07:35;;;;;;;5.22;4.68;;;;;;;21.00;80.46;94336.47;5050428;28;20189;-61
2022/08/06 03:10:02;;;;;;;6.15;4.82;;;;;;;21.12;80.40;94340.06;5050837;28;20678;-65
2022/08/06 03:12:28;;;;;;;6.60;4.53;;;;;;;21.14;79.89;94345.81;5032494;28;20213;-64
2022/08/06 03:14:54;;;;;;;7.10;4.60;;;;;;;20.97;80.10;94342.00;5032573;28;20284;-59
2022/08/06 03:17:22;;;;;;;6.35;4.55;;;;;;;20.77;80.83;94339.44;5050289;28;20616;-65
2022/08/06 03:19:49;;;;;;;7.03;4.32;;;;;;;20.33;84.47;94325.53;5050346;28;20189;-60
2022/08/06 03:22:17;;;;;;;5.40;4.90;;;;;;;20.38;84.11;94331.69;5050250;28;20209;-64
2022/08/06 03:24:44;;;;;;;5.38;4.88;;;;;;;20.42;84.08;94329.53;5050652;28;20194;-64
2022/08/06 03:27:11;;;;;;;6.40;4.10;;;;;;;20.47;83.54;94332.28;5050141;28;20255;-62
2022/08/06 03:29:40;;;;;;;5.78;4.25;;;;;;;20.75;81.58;94358.72;5050630;28;20646;-65
2022/08/06 03:32:08;;;;;;;4.97;4.47;;;;;;;20.65;82.31;94348.00;5049869;28;20321;-65
2022/08/06 03:34:34;;;;;;;4.63;4.22;;;;;;;20.50;83.46;94329.31;5050426;28;20189;-63
2022/08/06 03:37:01;;;;;;;5.78;5.28;;;;;;;20.41;84.74;94317.59;5049861;28;20216;-59
2022/08/06 03:39:30;;;;;;;6.88;4.50;;;;;;;20.42;85.14;94319.19;5032166;28;20671;-63
2022/08/06 03:41:56;;;;;;;5.85;4.53;;;;;;;20.43;85.07;94324.16;5049795;28;20638;-62
2022/08/06 03:44:22;;;;;;;10.43;4.65;;;;;;;20.53;84.32;94326.31;5050014;28;20196;-64
2022/08/06 03:46:58;;;;;;;5.53;4.55;;;;;;;20.51;84.28;94323.97;5049874;28;20251;-62
2022/08/06 03:49:30;;;;;;;9.95;5.50;;;;;;;20.82;83.20;94341.44;5050214;28;20189;-63
2022/08/06 03:51:58;;;;;;;7.15;5.20;;;;;;;20.74;82.62;94347.63;5052590;28;20209;-65
2022/08/06 03:54:31;;;;;;;14.52;5.65;;;;;;;20.77;82.85;94343.81;5035602;28;20197;-63
2022/08/06 03:57:01;;;;;;;8.65;5.38;;;;;;;20.69;82.91;94347.41;5053293;28;20224;-65
2022/08/06 03:59:28;;;;;;;7.28;4.68;;;;;;;20.71;83.12;94350.59;5053715;28;20204;-60
2022/08/06 04:01:56;;;;;;;6.45;5.45;;;;;;;20.73;83.07;94358.94;5059229;22;20682;-62
2022/08/06 04:04:24;;;;;;;7.20;5.38;;;;;;;20.55;82.78;94345.00;5053164;28;20208;-63
2022/08/06 04:06:51;;;;;;;7.85;5.45;;;;;;;20.67;82.92;94359.72;5052970;28;20247;-61
2022/08/06 04:09:19;;;;;;;9.60;5.30;;;;;;;20.76;82.16;94368.09;5053188;28;20215;-60
2022/08/06 04:11:45;;;;;;;6.70;4.93;;;;;;;20.73;82.19;94371.84;5052970;28;20265;-63
2022/08/06 04:14:13;;;;;;;6.75;5.32;;;;;;;20.51;84.70;94334.28;5052956;28;20693;-64
2022/08/06 04:16:40;;;;;;;7.50;5.20;;;;;;;20.34;87.61;94314.22;5053027;28;20274;-65
2022/08/06 04:19:06;;;;;;;29.48;16.33;;;;;;;20.43;86.46;94341.44;5053135;28;20620;-63
2022/08/06 04:21:33;;;;;;;16.73;11.10;;;;;;;20.45;86.81;94329.09;5052969;28;20434;-63
2022/08/06 04:23:59;;;;;;;13.13;9.05;;;;;;;20.44;86.67;94336.06;5035131;28;20587;-65
2022/08/06 04:26:27;;;;;;;16.02;9.55;;;;;;;20.21;88.48;94320.16;5052896;28;20214;-66
2022/08/06 04:28:55;;;;;;;12.98;8.65;;;;;;;20.35;87.87;94336.44;5034823;28;20307;-65
2022/08/06 04:31:22;;;;;;;17.20;10.85;;;;;;;20.42;88.72;94322.53;5052802;28;20218;-65
2022/08/06 04:33:50;;;;;;;13.32;9.38;;;;;;;20.49;87.92;94340.63;5052634;28;20224;-65
2022/08/06 04:36:16;;;;;;;13.85;9.05;;;;;;;20.59;87.17;94353.94;5052529;28;20197;-61
2022/08/06 04:38:42;;;;;;;11.43;7.93;;;;;;;20.91;85.31;94379.81;5052511;28;20209;-60
2022/08/06 04:41:08;;;;;;;9.05;6.80;;;;;;;20.90;83.57;94408.44;5052704;28;20213;-63
2022/08/06 04:43:35;;;;;;;14.73;5.30;;;;;;;20.86;85.31;94384.00;5034607;28;20189;-63
2022/08/06 04:46:01;;;;;;;7.45;5.80;;;;;;;21.04;83.72;94422.19;5052595;28;20292;-64
2022/08/06 04:48:27;;;;;;;9.10;6.03;;;;;;;21.06;83.39;94410.66;5052469;28;20185;-62
2022/08/06 04:50:53;;;;;;;13.50;8.65;;;;;;;21.16;84.99;94398.13;5052711;28;20689;-64
2022/08/06 04:53:19;;;;;;;10.60;7.63;;;;;;;21.40;85.64;94384.56;5052519;28;20177;-61
2022/08/06 04:55:47;;;;;;;9.68;7.38;;;;;;;21.53;83.64;94417.38;5034485;28;20205;-61
2022/08/06 04:58:14;;;;;;;11.20;8.48;;;;;;;21.64;82.82;94435.66;5052287;28;20243;-61
2022/08/06 05:00:42;;;;;;;8.63;7.05;;;;;;;21.82;82.79;94423.88;5052214;28;20758;-59
2022/08/06 05:03:08;;;;;;;10.35;7.13;;;;;;;21.98;80.55;94459.69;5051906;28;20198;-58
2022/08/06 05:05:50;;;;;;;10.07;7.38;;;;;;;22.05;78.87;94494.13;5034399;28;20220;-62
2022/08/06 05:08:17;;;;;;;9.32;6.93;;;;;;;22.09;78.61;94479.75;5052134;28;20300;-63
2022/08/06 05:11:08;;;;;;;7.78;5.68;;;;;;;22.09;77.58;94497.91;5052199;28;20205;-64
2022/08/06 05:13:38;;;;;;;11.10;5.15;;;;;;;22.06;77.30;94500.91;5052206;28;20173;-64
2022/08/06 05:16:07;;;;;;;5.53;4.95;;;;;;;22.19;77.01;94512.00;5052011;28;20205;-64
2022/08/06 05:18:43;;;;;;;7.43;4.95;;;;;;;22.01;77.01;94503.28;5052075;28;20247;-63
2022/08/06 05:21:12;;;;;;;5.38;4.95;;;;;;;22.01;78.55;94473.03;5034329;28;20299;-62
2022/08/06 05:23:46;;;;;;;8.80;6.32;;;;;;;22.00;78.37;94476.59;5051960;28;20185;-63
2022/08/06 05:26:12;;;;;;;9.30;6.78;;;;;;;22.21;77.82;94493.66;5052238;28;20206;-64
2022/08/06 05:28:41;;;;;;;8.27;6.80;;;;;;;22.28;75.89;94510.78;5052017;28;20288;-60
2022/08/06 05:31:07;;;;;;;8.65;6.78;;;;;;;22.45;75.64;94516.28;5033881;28;20289;-64
2022/08/06 05:33:38;;;;;;;10.40;6.47;;;;;;;22.10;77.55;94481.38;5051763;28;20273;-64
2022/08/06 05:36:07;;;;;;;6.57;5.97;;;;;;;22.19;78.08;94475.75;5052115;28;20288;-64
2022/08/06 05:38:35;;;;;;;9.20;5.93;;;;;;;22.32;77.70;94478.28;5051667;28;20830;-65
2022/08/06 05:41:00;;;;;;;8.30;7.22;;;;;;;22.57;74.53;94561.31;5052012;28;20564;-64
2022/08/06 05:43:26;;;;;;;7.15;6.45;;;;;;;22.49;75.32;94525.25;5051556;28;20193;-65
2022/08/06 05:46:00;;;;;;;17.13;6.85;;;;;;;22.60;73.89;94553.16;5051280;28;20575;-63
2022/08/06 05:48:30;;;;;;;9.82;6.38;;;;;;;22.53;73.63;94550.56;5051553;28;20202;-65
2022/08/06 05:51:01;;;;;;;8.20;6.60;;;;;;;22.58;74.20;94539.63;5051329;28;20288;-60
2022/08/06 05:53:34;;;;;;;9.82;6.88;;;;;;;22.50;74.52;94521.66;5034055;28;20272;-61
2022/08/06 05:56:09;;;;;;;7.45;6.63;;;;;;;22.47;74.52;94537.63;5051444;28;20293;-60
2022/08/06 05:58:44;;;;;;;7.07;6.45;;;;;;;22.52;75.04;94519.66;5051202;28;20189;-63
2022/08/06 06:01:12;;;;;;;8.00;6.40;;;;;;;22.73;72.75;94566.03;5051245;28;20204;-65
2022/08/06 06:03:41;;;;;;;9.77;6.90;;;;;;;22.81;72.58;94557.22;5051160;28;20205;-64
2022/08/06 06:06:08;;;;;;;9.55;6.55;;;;;;;22.84;71.76;94564.63;5051313;28;20639;-64
2022/08/06 06:08:41;;;;;;;7.95;5.85;;;;;;;22.79;72.24;94560.03;5033241;28;20614;-65
2022/08/06 06:11:08;;;;;;;6.65;5.97;;;;;;;22.77;72.29;94556.06;5051351;28;20267;-60
2022/08/06 06:13:33;;;;;;;8.07;6.70;;;;;;;22.78;71.45;94571.44;5050400;28;20213;-60
2022/08/06 06:16:25;;;;;;;6.55;5.80;;;;;;;22.71;72.94;94533.56;5051270;28;20247;-65
2022/08/06 06:18:58;;;;;;;7.80;5.78;;;;;;;22.94;76.53;94461.25;5005055;28;20220;-65
2022/08/06 06:21:34;;;;;;;7.95;5.88;;;;;;;23.19;70.42;94581.41;5051149;28;20210;-64
2022/08/06 06:24:25;;;;;;;6.72;6.13;;;;;;;23.16;69.81;94587.00;5051080;28;20185;-60
2022/08/06 06:27:02;;;;;;;7.88;6.57;;;;;;;23.21;72.93;94520.50;5051234;28;20223;-63
2022/08/06 06:30:06;;;;;;;6.30;5.63;;;;;;;23.46;74.87;94479.03;5051053;28;20236;-60
2022/08/06 06:33:10;;;;;;;9.35;5.70;;;;;;;23.85;72.41;94540.19;5032035;28;20221;-60
2022/08/06 06:35:57;;;;;;;5.93;5.10;;;;;;;24.12;70.51;94578.72;5051022;28;20274;-63
2022/08/06 06:38:29;;;;;;;8.93;6.60;;;;;;;23.97;68.33;94606.81;5050976;28;20189;-61
2022/08/06 06:41:04;;;;;;;10.38;7.57;;;;;;;24.00;68.03;94600.38;5050778;28;20217;-59
2022/08/06 06:43:39;;;;;;;9.27;6.78;;;;;;;24.06;68.54;94589.97;5050738;28;20223;-64
2022/08/06 06:46:07;;;;;;;9.13;7.28;;;;;;;24.19;68.14;94591.66;5050807;28;20212;-64
2022/08/06 06:48:50;;;;;;;11.27;7.40;;;;;;;24.36;66.24;94630.88;5050729;28;20640;-64
2022/08/06 06:51:34;;;;;;;10.43;6.93;;;;;;;24.17;67.18;94604.88;5051002;28;20217;-60
2022/08/06 06:54:00;;;;;;;8.18;7.13;;;;;;;23.88;67.39;94578.72;5032905;28;20649;-64
2022/08/06 06:56:31;;;;;;;7.65;6.85;;;;;;;23.70;68.76;94553.50;5050634;28;20296;-65
2022/08/06 06:59:20;;;;;;;10.13;7.55;;;;;;;23.78;67.88;94568.00;5050613;28;20190;-65
2022/08/06 07:01:47;;;;;;;9.52;7.35;;;;;;;23.89;68.49;94556.94;5050596;28;20263;-66
2022/08/06 07:04:16;;;;;;;8.98;7.30;;;;;;;23.93;68.14;94566.69;5050216;28;20224;-66
2022/08/06 07:06:46;;;;;;;11.13;7.65;;;;;;;24.07;67.81;94580.38;5050444;28;20689;-66
2022/08/06 07:09:22;;;;;;;9.60;8.38;;;;;;;24.29;67.43;94581.56;5050289;28;20560;-66
2022/08/06 07:11:50;;;;;;;10.13;7.35;;;;;;;24.43;66.68;94592.63;5032644;28;20706;-60
2022/08/06 07:14:18;;;;;;;9.10;8.25;;;;;;;24.47;66.20;94599.78;5050403;28;20194;-60
2022/08/06 07:16:44;;;;;;;9.57;6.85;;;;;;;24.47;66.05;94591.16;5050245;28;20206;-60
2022/08/06 07:19:10;;;;;;;10.52;7.22;;;;;;;24.62;66.12;94592.41;5050180;28;20182;-61
2022/08/06 07:21:39;;;;;;;10.02;7.07;;;;;;;24.72;65.11;94604.91;5050309;28;20556;-64
2022/08/06 07:24:05;;;;;;;9.45;6.90;;;;;;;24.63;64.74;94612.19;5050372;28;20227;-64
2022/08/06 07:26:32;;;;;;;11.63;7.15;;;;;;;24.80;65.06;94599.44;5052335;28;20210;-64
2022/08/06 07:28:59;;;;;;;8.10;6.35;;;;;;;24.89;65.07;94601.53;5053822;28;20268;-64
2022/08/06 07:31:27;;;;;;;9.30;6.38;;;;;;;25.07;63.89;94623.34;5053370;28;20224;-60
2022/08/06 07:33:53;;;;;;;8.25;5.63;;;;;;;25.40;63.58;94618.47;5053693;28;20575;-68
2022/08/06 07:36:22;;;;;;;7.53;6.82;;;;;;;25.43;63.95;94610.28;5041686;23;20217;-60
2022/08/06 07:38:48;;;;;;;10.95;6.63;;;;;;;25.55;62.84;94631.94;5053722;28;20697;-65
2022/08/06 07:41:15;;;;;;;9.50;7.07;;;;;;;25.60;62.14;94642.47;5053499;28;20686;-65
2022/08/06 07:43:53;;;;;;;6.55;5.68;;;;;;;26.00;59.72;94687.75;5053638;28;20211;-64
2022/08/06 07:46:22;;;;;;;7.60;6.20;;;;;;;26.02;60.01;94641.41;5053509;28;20619;-65
2022/08/06 07:48:54;;;;;;;8.73;5.70;;;;;;;26.24;60.64;94621.63;5053628;28;20197;-65
2022/08/06 07:51:23;;;;;;;8.32;5.55;;;;;;;26.16;59.98;94631.63;5034956;28;20216;-66
2022/08/06 07:53:50;;;;;;;9.27;5.90;;;;;;;26.09;60.28;94623.91;5019167;28;20200;-66
2022/08/06 07:56:18;;;;;;;8.95;5.75;;;;;;;26.22;58.83;94647.13;5035743;28;20613;-65
2022/08/06 07:58:44;;;;;;;6.55;5.68;;;;;;;26.33;58.46;94622.91;5035821;28;20197;-64
2022/08/06 08:01:11;;;;;;;8.43;5.60;;;;;;;26.35;56.22;94644.31;5053390;28;20221;-65
2022/08/06 08:06:22;;;;;;;8.75;5.85;;;;;;;26.56;56.02;94625.47;5053473;28;20596;-66
2022/08/06 08:08:55;;;;;;;7.47;4.90;;;;;;;26.72;55.65;94623.22;5053309;28;20205;-64
2022/08/06 08:11:23;;;;;;;7.63;5.32;;;;;;;26.80;54.52;94636.72;5053078;28;20300;-64
2022/08/06 08:13:52;;;;;;;6.97;4.75;;;;;;;26.81;54.05;94633.06;5053091;28;20190;-68
2022/08/06 08:16:18;;;;;;;6.15;5.55;;;;;;;26.90;55.07;94599.59;5053057;28;20237;-65
2022/08/06 08:18:44;;;;;;;6.13;5.35;;;;;;;26.96;53.48;94632.59;5053139;28;20193;-65
2022/08/06 08:21:10;;;;;;;7.50;4.93;;;;;;;27.30;53.13;94619.44;5052900;28;20213;-67
2022/08/06 08:23:38;;;;;;;7.25;4.70;;;;;;;27.48;54.53;94594.97;5052912;28;20189;-68
2022/08/06 08:26:03;;;;;;;7.95;5.70;;;;;;;27.64;54.10;94599.41;5052544;28;20209;-65
2022/08/06 08:28:30;;;;;;;5.18;4.68;;;;;;;27.76;53.49;94602.75;5052723;28;20189;-60
2022/08/06 08:31:01;;;;;;;8.15;4.70;;;;;;;27.84;52.53;94620.66;5052794;28;20602;-64
2022/08/06 08:33:28;;;;;;;5.60;5.10;;;;;;;28.20;54.64;94565.28;5053122;28;20201;-62
2022/08/06 08:35:54;;;;;;;6.30;5.18;;;;;;;28.41;52.35;94620.50;5052443;28;20220;-68
2022/08/06 08:38:19;;;;;;;5.40;4.28;;;;;;;28.34;51.15;94628.53;5052456;28;20185;-65
2022/08/06 08:40:47;;;;;;;5.00;4.50;;;;;;;28.64;51.80;94615.91;5033829;28;20213;-65
2022/08/06 08:43:19;;;;;;;4.43;4.03;;;;;;;28.62;48.02;94674.75;5034681;28;20185;-68
2022/08/06 08:45:49;;;;;;;5.78;4.50;;;;;;;28.82;48.99;94646.22;5035340;28;20721;-65
2022/08/06 08:48:16;;;;;;;5.93;4.30;;;;;;;28.91;49.73;94623.81;5052437;28;20189;-66
2022/08/06 08:50:42;;;;;;;6.25;4.15;;;;;;;29.09;50.83;94589.47;5058682;22;20237;-60
2022/08/06 08:53:14;;;;;;;6.93;4.45;;;;;;;29.07;50.26;94606.47;5052287;28;20221;-61
2022/08/06 08:55:41;;;;;;;6.30;4.57;;;;;;;29.06;47.93;94639.72;5052675;28;20208;-66
2022/08/06 08:58:07;;;;;;;6.38;4.10;;;;;;;29.06;46.84;94650.19;5052684;28;20190;-67
2022/08/06 09:00:33;;;;;;;5.80;4.25;;;;;;;29.48;49.69;94592.78;5058409;22;20617;-68
2022/08/06 09:03:02;;;;;;;4.53;4.13;;;;;;;29.77;47.21;94650.00;5052287;28;20198;-68
2022/08/06 09:05:29;;;;;;;3.80;3.50;;;;;;;29.81;45.88;94664.19;5052609;28;20729;-65
2022/08/06 09:07:56;;;;;;;5.85;3.95;;;;;;;29.76;46.87;94635.28;5052086;28;20280;-69
2022/08/06 09:10:22;;;;;;;6.82;3.45;;;;;;;29.99;41.89;94718.09;5052648;28;20259;-67
2022/08/06 09:12:47;;;;;;;5.25;4.05;;;;;;;29.57;44.69;94641.88;5052565;28;20229;-69
2022/08/06 09:15:15;;;;;;;3.90;3.60;;;;;;;29.54;44.86;94639.75;5052563;28;20189;-69
2022/08/06 09:17:41;;;;;;;3.83;3.40;;;;;;;29.68;44.63;94642.78;5034473;28;20186;-69
2022/08/06 09:20:07;;;;;;;4.22;3.83;;;;;;;29.71;44.31;94635.22;5034248;28;20189;-64
2022/08/06 09:22:32;;;;;;;5.53;3.90;;;;;;;29.70;42.04;94675.56;5052146;28;20189;-61
2022/08/06 09:24:58;;;;;;;4.03;3.72;;;;;;;29.98;43.17;94650.16;5034117;28;20208;-65
2022/08/06 09:27:32;;;;;;;5.80;3.55;;;;;;;30.44;42.78;94654.75;5051990;28;20288;-66
2022/08/06 09:30:00;;;;;;;6.78;3.95;;;;;;;31.02;43.37;94630.94;5034360;28;20235;-66
2022/08/06 09:32:43;;;;;;;5.07;3.47;;;;;;;30.91;41.34;94675.81;5051673;28;20219;-63
2022/08/06 09:35:24;;;;;;;5.03;3.65;;;;;;;31.23;42.47;94637.06;5052187;28;20201;-65
2022/08/06 09:37:59;;;;;;;4.30;3.60;;;;;;;31.57;40.63;94677.69;5051986;28;20291;-69
2022/08/06 09:40:25;;;;;;;8.90;4.80;;;;;;;31.81;41.84;94652.50;5057588;22;20209;-70
2022/08/06 09:42:52;;;;;;;5.65;3.50;;;;;;;32.10;38.87;94710.69;5051636;28;20250;-66
2022/08/06 09:45:21;;;;;;;6.53;3.60;;;;;;;32.19;37.92;94711.75;5051480;28;20267;-69
2022/08/06 09:50:36;;;;;;;8.23;3.78;;;;;;;32.37;38.45;94681.47;5057306;22;20225;-68
2022/08/06 09:53:02;;;;;;;5.00;3.72;;;;;;;32.23;38.67;94662.81;5051569;28;20210;-66
2022/08/06 09:55:29;;;;;;;5.20;3.45;;;;;;;32.14;38.18;94667.78;5051054;28;20288;-65
2022/08/06 09:57:55;;;;;;;5.68;4.00;;;;;;;32.19;37.78;94669.66;5051772;28;20258;-61
2022/08/06 10:00:29;;;;;;;4.38;3.65;;;;;;;32.56;38.46;94641.22;5051486;28;20242;-69
2022/08/06 10:02:59;;;;;;;4.53;3.78;;;;;;;32.95;37.61;94665.88;5051814;28;20225;-66
2022/08/06 10:05:26;;;;;;;3.78;3.50;;;;;;;33.09;36.00;94691.72;5051407;28;20789;-69
2022/08/06 10:08:05;;;;;;;4.32;3.58;;;;;;;33.00;36.46;94668.53;5051270;28;20604;-69
2022/08/06 10:10:41;;;;;;;5.57;3.30;;;;;;;32.97;36.30;94650.63;5051346;28;20209;-69
2022/08/06 10:13:12;;;;;;;3.95;3.35;;;;;;;32.87;34.08;94681.44;5051485;28;20255;-66
2022/08/06 10:15:37;;;;;;;4.65;3.72;;;;;;;32.22;36.21;94619.13;5051414;28;20278;-60
2022/08/06 10:18:02;;;;;;;4.25;3.85;;;;;;;31.24;37.25;94592.13;5051368;28;20269;-61
2022/08/06 10:20:28;;;;;;;3.95;3.08;;;;;;;31.66;37.17;94599.06;5033088;28;20209;-62
2022/08/06 10:22:56;;;;;;;3.25;2.92;;;;;;;32.17;37.29;94590.16;5051581;28;20198;-66
2022/08/06 10:25:23;;;;;;;3.22;2.92;;;;;;;32.53;37.26;94575.91;5051125;28;20189;-69
2022/08/06 10:27:53;;;;;;;3.20;3.00;;;;;;;32.74;36.02;94610.88;5051315;28;20200;-69
2022/08/06 10:30:20;;;;;;;3.50;3.20;;;;;;;33.37;36.29;94596.16;5051209;28;20272;-69
2022/08/06 10:32:48;;;;;;;5.75;3.10;;;;;;;33.33;34.85;94622.25;5051175;28;20224;-68
2022/08/06 10:35:19;;;;;;;5.15;3.42;;;;;;;33.69;34.30;94517.38;5050788;28;20224;-62
2022/08/06 10:37:51;;;;;;;7.07;3.58;;;;;;;33.56;35.12;94459.97;5051349;28;20197;-69
2022/08/06 10:40:19;;;;;;;5.03;4.55;;;;;;;33.49;34.32;94451.59;5033039;28;20600;-65
2022/08/06 10:42:45;;;;;;;8.77;3.70;;;;;;;34.20;33.54;94451.72;5050788;28;20197;-66
2022/08/06 10:45:13;;;;;;;7.05;3.13;;;;;;;34.02;34.19;94429.47;5032817;28;20181;-65
2022/08/06 10:47:39;;;;;;;6.10;3.40;;;;;;;33.48;34.59;94413.06;5050765;28;20204;-66
2022/08/06 10:50:07;;;;;;;4.18;3.55;;;;;;;32.77;35.93;94395.13;5050625;28;20185;-64
2022/08/06 10:52:34;;;;;;;4.05;3.75;;;;;;;32.19;36.90;94380.16;5050936;28;20221;-62
2022/08/06 10:54:59;;;;;;;4.82;3.85;;;;;;;32.57;36.73;94400.53;5050829;28;20181;-65
2022/08/06 10:57:26;;;;;;;6.82;3.38;;;;;;;33.49;34.29;94419.94;5050836;28;20212;-66
2022/08/06 10:59:52;;;;;;;6.00;3.75;;;;;;;33.70;34.63;94405.50;5033849;28;20193;-66
2022/08/06 11:02:46;;;;;;;5.78;3.53;;;;;;;34.39;30.41;94432.22;5060244;22;20389;-68
2022/08/06 11:05:23;;;;;;;5.20;4.07;;;;;;;33.75;31.22;94394.91;5054098;28;20178;-65
2022/08/06 11:08:16;;;;;;;3.72;3.42;;;;;;;34.75;31.95;94390.28;5054091;28;20185;-65
2022/08/06 11:10:53;;;;;;;4.38;2.90;;;;;;;34.39;31.19;94403.16;5053997;28;20217;-66
2022/08/06 11:13:36;;;;;;;4.82;3.67;;;;;;;35.40;32.51;94369.97;5054208;28;20247;-66
2022/08/06 11:16:02;;;;;;;5.13;3.30;;;;;;;35.63;33.34;94363.00;5054368;28;20278;-63
2022/08/06 11:18:27;;;;;;;7.82;3.20;;;;;;;35.16;32.16;94364.03;5054164;28;20178;-62
2022/08/06 11:20:54;;;;;;;3.88;3.47;;;;;;;34.64;32.25;94368.50;5060295;22;20213;-61
2022/08/06 11:23:19;;;;;;;4.10;3.72;;;;;;;33.85;32.99;94358.66;5054085;28;20198;-65
2022/08/06 11:25:52;;;;;;;8.48;7.65;;;;;;;33.21;33.12;94352.91;5059835;22;20685;-66
2022/08/06 11:28:20;;;;;;;5.40;4.60;;;;;;;32.67;33.21;94353.06;5059944;22;20304;-66
2022/08/06 11:30:54;;;;;;;3.58;3.25;;;;;;;32.47;34.06;94334.75;5053709;28;20213;-68
2022/08/06 11:33:41;;;;;;;5.45;3.33;;;;;;;32.78;34.77;94333.50;5053745;28;20737;-68
2022/08/06 11:36:15;;;;;;;3.78;3.33;;;;;;;33.10;34.31;94340.91;5053623;28;20734;-61
2022/08/06 11:38:46;;;;;;;3.70;3.22;;;;;;;32.89;35.19;94337.63;5053844;28;20193;-60
2022/08/06 11:43:48;;;;;;;5.63;3.10;;;;;;;31.80;35.65;94332.66;5059331;22;20233;-69
2022/08/06 11:46:25;;;;;;;6.43;3.35;;;;;;;31.23;37.26;94313.88;5035592;28;20218;-67
2022/08/06 11:48:59;;;;;;;4.07;3.65;;;;;;;31.36;37.49;94300.94;5035735;28;20189;-67
2022/08/06 11:51:42;;;;;;;4.57;3.70;;;;;;;31.05;38.86;94299.41;5065489;22;20271;-68
2022/08/06 11:54:27;;;;;;;7.45;4.13;;;;;;;30.59;39.56;94298.63;5066175;22;20214;-62